createdAt,value
2022-12-10T00:01:40.217Z,10.93
2022-12-10T00:04:07.982Z,12.13
2022-12-10T00:06:37.498Z,10.73
2022-12-10T00:09:07.569Z,10.80
2022-12-10T00:11:35.654Z,12.48
2022-12-10T00:14:03.337Z,13.73
2022-12-10T00:16:32.666Z,13.43
2022-12-10T00:19:00.421Z,11.93
2022-12-10T00:21:30.910Z,10.57
2022-12-10T00:23:59.986Z,11.68
2022-12-10T00:26:30.213Z,10.77
2022-12-10T00:28:58.967Z,12.37
2022-12-10T00:31:29.828Z,11.23
2022-12-10T00:34:03.229Z,11.23
2022-12-10T00:36:36.915Z,10.80
2022-12-10T00:39:05.683Z,11.52
2022-12-10T00:41:33.532Z,11.32
2022-12-10T00:44:01.319Z,12.85
2022-12-10T00:46:30.184Z,11.48
2022-12-10T00:48:57.934Z,10.85
2022-12-10T00:51:27.713Z,11.43
2022-12-10T00:53:58.003Z,12.30
2022-12-10T00:56:28.451Z,12.48
2022-12-10T00:58:56.888Z,10.93
2022-12-10T01:01:39.894Z,15.55
2022-12-10T01:04:11.903Z,10.68
2022-12-10T01:06:45.843Z,10.90
2022-12-10T01:09:16.080Z,10.68
2022-12-10T01:11:46.068Z,12.15
2022-12-10T01:14:17.077Z,11.77
2022-12-10T01:16:45.370Z,12.25
2022-12-10T01:19:13.844Z,13.27
2022-12-10T01:21:42.012Z,11.70
2022-12-10T01:24:10.113Z,11.02
2022-12-10T01:26:38.201Z,10.63
2022-12-10T01:29:06.976Z,11.32
2022-12-10T01:31:39.510Z,11.70
2022-12-10T01:34:09.038Z,13.30
2022-12-10T01:36:39.394Z,13.70
2022-12-10T01:39:09.695Z,10.57
2022-12-10T01:41:58.224Z,9.93
2022-12-10T01:44:25.782Z,11.68
2022-12-10T01:46:56.788Z,10.90
2022-12-10T01:49:36.867Z,9.57
2022-12-10T01:52:06.706Z,12.18
2022-12-10T01:54:39.060Z,11.05
2022-12-10T01:57:10.802Z,13.02
2022-12-10T01:59:40.288Z,9.48
2022-12-10T02:02:22.249Z,11.15
2022-12-10T02:05:07.003Z,12.75
2022-12-10T02:08:17.010Z,12.20
2022-12-10T02:11:15.764Z,10.55
2022-12-10T02:13:49.241Z,11.68
2022-12-10T02:16:35.488Z,10.68
2022-12-10T02:19:09.165Z,9.82
2022-12-10T02:21:40.505Z,11.05
2022-12-10T02:24:13.753Z,11.95
2022-12-10T02:26:50.645Z,11.43
2022-12-10T02:29:25.406Z,12.25
2022-12-10T02:31:59.180Z,11.40
2022-12-10T02:34:30.541Z,10.80
2022-12-10T02:37:03.977Z,12.32
2022-12-10T02:39:38.602Z,12.52
2022-12-10T02:42:08.449Z,11.15
2022-12-10T02:44:39.086Z,9.77
2022-12-10T02:47:08.787Z,13.80
2022-12-10T02:49:38.960Z,11.85
2022-12-10T02:52:16.670Z,12.48
2022-12-10T02:54:46.567Z,12.70
2022-12-10T02:57:17.233Z,10.93
2022-12-10T03:00:02.977Z,12.37
2022-12-10T03:02:48.555Z,9.88
2022-12-10T03:05:24.354Z,12.27
2022-12-10T03:08:00.948Z,13.07
2022-12-10T03:10:50.644Z,13.35
2022-12-10T03:13:21.695Z,13.68
2022-12-10T03:15:51.847Z,12.77
2022-12-10T03:18:24.293Z,13.07
2022-12-10T03:20:55.261Z,12.65
2022-12-10T03:23:23.452Z,16.23
2022-12-10T03:25:52.382Z,11.10
2022-12-10T03:28:21.861Z,12.27
2022-12-10T03:30:51.292Z,12.45
2022-12-10T03:33:20.090Z,13.48
2022-12-10T03:35:49.453Z,12.95
2022-12-10T03:38:17.751Z,13.80
2022-12-10T03:40:45.462Z,13.20
2022-12-10T03:43:16.284Z,11.93
2022-12-10T03:45:44.082Z,12.95
2022-12-10T03:48:11.809Z,12.45
2022-12-10T03:50:39.530Z,13.50
2022-12-10T03:53:07.247Z,14.98
2022-12-10T03:55:35.059Z,14.25
2022-12-10T03:58:02.743Z,14.27
2022-12-10T04:00:30.358Z,16.40
2022-12-10T04:02:58.073Z,17.65
2022-12-10T04:05:25.724Z,13.90
2022-12-10T04:07:53.515Z,14.87
2022-12-10T04:10:21.212Z,12.73
2022-12-10T04:13:08.764Z,14.32
2022-12-10T04:15:59.227Z,13.18
2022-12-10T04:18:26.868Z,15.23
2022-12-10T04:21:13.348Z,13.30
2022-12-10T04:23:59.590Z,15.90
2022-12-10T04:26:45.985Z,18.58
2022-12-10T04:29:13.738Z,13.95
2022-12-10T04:31:41.437Z,16.55
2022-12-10T04:34:09.151Z,15.45
2022-12-10T04:36:36.811Z,15.88
2022-12-10T04:39:05.202Z,14.60
2022-12-10T04:41:32.905Z,13.73
2022-12-10T04:44:00.679Z,15.95
2022-12-10T04:46:29.704Z,14.00
2022-12-10T04:48:57.396Z,12.45
2022-12-10T04:51:25.068Z,13.90
2022-12-10T04:53:52.777Z,14.90
2022-12-10T04:56:20.626Z,15.60
2022-12-10T04:58:48.525Z,15.00
2022-12-10T05:01:16.319Z,15.30
2022-12-10T05:03:44.004Z,12.25
2022-12-10T05:06:14.884Z,13.68
2022-12-10T05:08:43.364Z,13.88
2022-12-10T05:11:16.732Z,14.02
2022-12-10T05:13:44.543Z,16.12
2022-12-10T05:16:14.562Z,13.00
2022-12-10T05:18:42.380Z,15.02
2022-12-10T05:21:14.605Z,15.20
2022-12-10T05:23:45.511Z,17.62
2022-12-10T05:26:15.043Z,17.67
2022-12-10T05:28:49.098Z,13.88
2022-12-10T05:31:19.746Z,17.17
2022-12-10T05:33:48.177Z,14.68
2022-12-10T05:36:19.299Z,15.88
2022-12-10T05:38:47.046Z,14.00
2022-12-10T05:41:26.209Z,15.32
2022-12-10T05:43:57.019Z,17.12
2022-12-10T05:46:28.129Z,17.60
2022-12-10T05:48:56.077Z,13.43
2022-12-10T05:51:27.201Z,17.05
2022-12-10T05:53:55.851Z,15.15
2022-12-10T05:56:25.035Z,15.32
2022-12-10T05:58:54.901Z,14.02
2022-12-10T06:01:28.491Z,15.40
2022-12-10T06:03:56.652Z,16.37
2022-12-10T06:06:26.028Z,16.15
2022-12-10T06:08:54.125Z,15.32
2022-12-10T06:11:21.872Z,17.10
2022-12-10T06:13:55.841Z,17.67
2022-12-10T06:16:25.017Z,17.25
2022-12-10T06:18:53.069Z,14.55
2022-12-10T06:21:21.843Z,13.95
2022-12-10T06:23:53.302Z,16.50
2022-12-10T06:26:26.924Z,15.23
2022-12-10T06:28:56.021Z,14.40
2022-12-10T06:31:24.791Z,14.70
2022-12-10T06:33:54.500Z,15.70
2022-12-10T06:36:22.449Z,14.70
2022-12-10T06:38:50.430Z,17.98
2022-12-10T06:41:20.165Z,15.02
2022-12-10T06:43:48.065Z,16.35
2022-12-10T06:46:18.339Z,15.27
2022-12-10T06:48:46.470Z,16.12
2022-12-10T06:51:15.458Z,17.92
2022-12-10T06:53:43.292Z,17.40
2022-12-10T06:56:15.627Z,14.98
2022-12-10T06:58:44.309Z,19.52
2022-12-10T07:01:28.162Z,17.30
2022-12-10T07:03:58.166Z,15.15
2022-12-10T07:06:27.598Z,12.90
2022-12-10T07:08:55.224Z,16.15
2022-12-10T07:11:24.782Z,14.35
2022-12-10T07:13:53.430Z,18.00
2022-12-10T07:16:33.695Z,12.82
2022-12-10T07:19:04.262Z,18.92
2022-12-10T07:21:37.319Z,17.33
2022-12-10T07:24:11.585Z,17.25
2022-12-10T07:26:41.473Z,18.73
2022-12-10T07:29:15.783Z,17.20
2022-12-10T07:31:44.231Z,19.62
2022-12-10T07:34:12.976Z,17.12
2022-12-10T07:36:40.951Z,19.12
2022-12-10T07:39:11.095Z,14.02
2022-12-10T07:41:39.304Z,19.95
2022-12-10T07:44:08.802Z,18.15
2022-12-10T07:46:36.553Z,15.77
2022-12-10T07:49:05.165Z,17.37
2022-12-10T07:51:33.374Z,17.00
2022-12-10T07:54:01.060Z,21.87
2022-12-10T07:56:28.742Z,17.52
2022-12-10T07:58:56.461Z,19.52
2022-12-10T08:01:27.780Z,24.17
2022-12-10T08:04:00.030Z,22.20
2022-12-10T08:06:30.766Z,19.05
2022-12-10T08:09:01.342Z,22.00
2022-12-10T08:11:29.813Z,20.60
2022-12-10T08:13:58.034Z,15.70
2022-12-10T08:16:28.843Z,17.35
2022-12-10T08:19:02.232Z,17.17
2022-12-10T08:21:32.619Z,18.12
2022-12-10T08:24:01.031Z,18.37
2022-12-10T08:26:31.676Z,16.80
2022-12-10T08:28:59.677Z,20.45
2022-12-10T08:31:33.058Z,20.10
2022-12-10T08:34:04.836Z,17.85
2022-12-10T08:36:32.851Z,17.98
2022-12-10T08:39:00.638Z,17.33
2022-12-10T08:41:28.284Z,20.08
2022-12-10T08:43:56.804Z,18.95
2022-12-10T08:46:25.264Z,16.65
2022-12-10T08:48:52.853Z,18.60
2022-12-10T08:51:21.308Z,18.10
2022-12-10T08:53:49.474Z,16.27
2022-12-10T08:56:17.144Z,20.45
2022-12-10T08:58:44.823Z,20.02
2022-12-10T09:01:15.427Z,21.37
2022-12-10T09:03:43.318Z,20.60
2022-12-10T09:06:13.644Z,18.33
2022-12-10T09:08:41.479Z,16.98
2022-12-10T09:11:12.291Z,19.10
2022-12-10T09:13:39.965Z,21.67
2022-12-10T09:16:07.962Z,22.05
2022-12-10T09:18:35.817Z,21.20
2022-12-10T09:21:08.243Z,22.20
2022-12-10T09:23:36.340Z,23.20
2022-12-10T09:26:08.392Z,23.75
2022-12-10T09:28:36.057Z,21.10
2022-12-10T09:31:10.967Z,27.20
2022-12-10T09:33:41.957Z,26.33
2022-12-10T09:36:11.593Z,20.75
2022-12-10T09:38:41.300Z,22.17
2022-12-10T09:41:50.560Z,21.85
2022-12-10T09:44:27.931Z,20.90
2022-12-10T09:46:58.390Z,25.48
2022-12-10T09:49:44.409Z,22.10
2022-12-10T09:52:18.931Z,23.83
2022-12-10T09:54:52.069Z,21.50
2022-12-10T09:57:37.552Z,20.42
2022-12-10T10:00:24.120Z,24.42
2022-12-10T10:02:53.744Z,21.02
2022-12-10T10:05:28.431Z,23.58
2022-12-10T10:07:59.887Z,26.87
2022-12-10T10:10:34.161Z,26.35
2022-12-10T10:13:40.459Z,24.12
2022-12-10T10:16:28.704Z,21.12
2022-12-10T10:19:00.482Z,20.80
2022-12-10T10:21:35.321Z,25.05
2022-12-10T10:24:09.868Z,21.40
2022-12-10T10:26:39.525Z,18.37
2022-12-10T10:29:10.344Z,18.87
2022-12-10T10:31:41.316Z,19.42
2022-12-10T10:34:23.840Z,21.02
2022-12-10T10:37:05.168Z,21.05
2022-12-10T10:39:36.883Z,17.90
2022-12-10T10:42:11.866Z,21.40
2022-12-10T10:44:40.927Z,20.12
2022-12-10T10:47:34.060Z,21.27
2022-12-10T10:50:04.538Z,18.55
2022-12-10T10:52:39.186Z,20.20
2022-12-10T10:55:07.313Z,18.73
2022-12-10T10:57:38.536Z,19.90
2022-12-10T11:00:19.183Z,19.98
2022-12-10T11:02:47.011Z,18.67
2022-12-10T11:05:35.437Z,21.42
2022-12-10T11:08:15.541Z,18.05
2022-12-10T11:10:57.403Z,19.98
2022-12-10T11:13:28.155Z,15.80
2022-12-10T11:15:59.337Z,17.12
2022-12-10T11:18:38.545Z,18.75
2022-12-10T11:21:18.406Z,22.48
2022-12-10T11:23:49.139Z,15.55
2022-12-10T11:26:27.165Z,18.80
2022-12-10T11:29:10.157Z,19.98
2022-12-10T11:31:56.097Z,17.40
2022-12-10T11:34:26.923Z,20.92
2022-12-10T11:36:57.432Z,16.55
2022-12-10T11:39:53.599Z,20.27
2022-12-10T11:42:54.196Z,14.90
2022-12-10T11:45:49.705Z,12.90
2022-12-10T11:48:17.740Z,17.12
2022-12-10T11:50:49.827Z,16.62
2022-12-10T11:53:39.200Z,17.23
2022-12-10T11:56:15.327Z,13.23
2022-12-10T11:59:17.924Z,14.82
2022-12-10T12:01:48.133Z,12.50
2022-12-10T12:04:37.505Z,11.90
2022-12-10T12:07:23.387Z,10.88
2022-12-10T12:10:09.683Z,8.80
2022-12-10T12:12:59.536Z,9.90
2022-12-10T12:15:41.868Z,11.57
2022-12-10T12:18:23.279Z,12.40
2022-12-10T12:20:51.304Z,11.50
2022-12-10T12:23:29.065Z,10.57
2022-12-10T12:26:03.721Z,14.32
2022-12-10T12:28:44.228Z,15.48
2022-12-10T12:31:17.177Z,13.52
2022-12-10T12:33:52.450Z,13.13
2022-12-10T12:36:24.367Z,11.88
2022-12-10T12:39:16.894Z,16.67
2022-12-10T12:42:05.907Z,14.63
2022-12-10T12:44:36.624Z,13.88
2022-12-10T12:47:17.931Z,14.27
2022-12-10T12:49:46.570Z,17.90
2022-12-10T12:52:40.020Z,13.38
2022-12-10T12:55:29.005Z,12.73
2022-12-10T12:58:35.419Z,14.87
2022-12-10T13:01:33.326Z,15.27
2022-12-10T13:04:01.264Z,10.93
2022-12-10T13:06:33.113Z,11.60
2022-12-10T13:09:26.497Z,11.00
2022-12-10T13:12:06.035Z,11.50
2022-12-10T13:14:55.473Z,9.63
2022-12-10T13:17:35.991Z,9.60
2022-12-10T13:20:28.275Z,11.30
2022-12-10T13:23:05.265Z,9.25
2022-12-10T13:25:48.010Z,12.35
2022-12-10T13:28:28.142Z,9.00
2022-12-10T13:31:09.575Z,11.85
2022-12-10T13:34:27.845Z,13.18
2022-12-10T13:37:05.974Z,16.40
2022-12-10T13:39:47.568Z,12.07
2022-12-10T13:42:33.780Z,10.48
2022-12-10T13:45:11.502Z,10.93
2022-12-10T13:47:39.062Z,11.02
2022-12-10T13:50:26.326Z,11.63
2022-12-10T13:53:16.583Z,12.65
2022-12-10T13:56:12.998Z,13.30
2022-12-10T13:58:51.213Z,12.68
2022-12-10T14:01:39.101Z,11.68
2022-12-10T14:04:12.315Z,9.00
2022-12-10T14:06:41.893Z,9.35
2022-12-10T14:09:22.725Z,13.00
2022-12-10T14:12:02.937Z,13.35
2022-12-10T14:14:48.005Z,10.40
2022-12-10T14:17:23.250Z,9.30
2022-12-10T14:19:55.334Z,10.93
2022-12-10T14:22:35.994Z,10.23
2022-12-10T14:25:09.566Z,8.45
2022-12-10T14:27:38.114Z,8.43
2022-12-10T14:30:17.635Z,12.25
2022-12-10T14:32:46.184Z,12.82
2022-12-10T14:35:25.145Z,11.02
2022-12-10T14:37:56.180Z,8.05
2022-12-10T14:40:26.434Z,10.05
2022-12-10T14:43:02.296Z,9.07
2022-12-10T14:45:38.447Z,8.35
2022-12-10T14:48:09.443Z,9.23
2022-12-10T14:50:37.115Z,9.23
2022-12-10T14:53:05.298Z,9.35
2022-12-10T14:55:36.162Z,8.05
2022-12-10T14:58:07.051Z,10.80
2022-12-10T15:00:35.754Z,8.25
2022-12-10T15:03:10.633Z,7.50
2022-12-10T15:05:39.029Z,8.50
2022-12-10T15:08:09.628Z,8.25
2022-12-10T15:10:41.848Z,9.80
2022-12-10T15:13:18.030Z,8.50
2022-12-10T15:15:50.038Z,8.55
2022-12-10T15:18:20.434Z,10.88
2022-12-10T15:20:54.709Z,9.23
2022-12-10T15:23:34.222Z,8.93
2022-12-10T15:26:12.842Z,8.02
2022-12-10T15:28:43.374Z,8.10
2022-12-10T15:31:14.254Z,12.05
2022-12-10T15:33:54.728Z,8.25
2022-12-10T15:36:31.249Z,9.95
2022-12-10T15:39:00.107Z,8.02
2022-12-10T15:41:58.051Z,7.75
2022-12-10T15:44:31.892Z,7.50
2022-12-10T15:47:21.296Z,8.40
2022-12-10T15:49:50.828Z,5.93
2022-12-10T15:52:21.076Z,6.72
2022-12-10T15:54:51.687Z,7.15
2022-12-10T15:57:20.681Z,7.37
2022-12-10T15:59:50.793Z,8.55
2022-12-10T16:02:36.993Z,11.48
2022-12-10T16:05:12.135Z,6.32
2022-12-10T16:07:39.913Z,6.65
2022-12-10T16:10:08.901Z,7.05
2022-12-10T16:12:40.718Z,6.93
2022-12-10T16:15:13.069Z,8.60
2022-12-10T16:17:40.683Z,6.97
2022-12-10T16:20:23.816Z,10.45
2022-12-10T16:22:51.908Z,7.93
2022-12-10T16:25:19.859Z,9.35
2022-12-10T16:27:47.588Z,8.15
2022-12-10T16:30:47.098Z,11.10
2022-12-10T16:33:20.002Z,10.00
2022-12-10T16:35:48.852Z,10.75
2022-12-10T16:38:16.984Z,10.20
2022-12-10T16:40:46.145Z,8.25
2022-12-10T16:43:19.432Z,11.10
2022-12-10T16:45:47.569Z,8.50
2022-12-10T16:48:15.642Z,10.02
2022-12-10T16:50:44.516Z,8.82
2022-12-10T16:53:25.681Z,8.85
2022-12-10T16:55:53.810Z,9.35
2022-12-10T16:58:23.053Z,8.35
2022-12-10T17:00:54.632Z,8.57
2022-12-10T17:03:26.239Z,9.57
2022-12-10T17:05:59.382Z,7.15
2022-12-10T17:08:28.994Z,8.60
2022-12-10T17:11:17.045Z,13.30
2022-12-10T17:13:46.874Z,9.15
2022-12-10T17:16:22.250Z,9.02
2022-12-10T17:18:50.481Z,11.70
2022-12-10T17:21:18.343Z,9.48
2022-12-10T17:23:46.324Z,10.73
2022-12-10T17:26:25.960Z,11.98
2022-12-10T17:28:54.194Z,11.73
2022-12-10T17:31:22.135Z,11.63
2022-12-10T17:33:52.051Z,9.75
2022-12-10T17:36:20.183Z,9.20
2022-12-10T17:38:47.912Z,11.07
2022-12-10T17:41:17.750Z,10.35
2022-12-10T17:43:45.776Z,11.38
2022-12-10T17:46:14.719Z,11.93
2022-12-10T17:48:42.888Z,12.32
2022-12-10T17:51:14.338Z,12.73
2022-12-10T17:53:43.128Z,9.68
2022-12-10T17:56:19.645Z,13.98
2022-12-10T17:58:48.770Z,13.07
2022-12-10T18:01:17.036Z,11.10
2022-12-10T18:03:45.095Z,10.20
2022-12-10T18:06:27.220Z,10.57
2022-12-10T18:09:00.863Z,10.32
2022-12-10T18:11:33.159Z,11.90
2022-12-10T18:14:01.137Z,12.02
2022-12-10T18:16:33.252Z,12.05
2022-12-10T18:19:03.401Z,10.52
2022-12-10T18:21:31.291Z,8.27
2022-12-10T18:23:58.976Z,15.80
2022-12-10T18:26:27.365Z,18.12
2022-12-10T18:28:56.637Z,14.52
2022-12-10T18:31:34.491Z,9.45
2022-12-10T18:34:08.593Z,7.93
2022-12-10T18:36:39.474Z,11.45
2022-12-10T18:39:14.560Z,10.00
2022-12-10T18:41:42.173Z,9.38
2022-12-10T18:44:09.832Z,7.97
2022-12-10T18:46:40.253Z,7.85
2022-12-10T18:49:08.390Z,8.13
2022-12-10T18:51:36.099Z,7.87
2022-12-10T18:54:03.916Z,8.88
2022-12-10T18:56:33.736Z,8.45
2022-12-10T18:59:02.172Z,10.15
2022-12-10T19:01:30.752Z,8.38
2022-12-10T19:03:59.456Z,12.23
2022-12-10T19:06:29.307Z,8.73
2022-12-10T19:11:52.830Z,8.07
2022-12-10T19:14:21.891Z,12.60
2022-12-10T19:16:49.605Z,10.00
2022-12-10T19:19:19.142Z,9.63
2022-12-10T19:21:47.888Z,11.02
2022-12-10T19:24:15.645Z,12.07
2022-12-10T19:26:44.579Z,10.07
2022-12-10T19:29:15.939Z,11.68
2022-12-10T19:31:44.354Z,16.67
2022-12-10T19:34:13.448Z,12.00
2022-12-10T19:36:42.770Z,12.60
2022-12-10T19:39:36.932Z,14.57
2022-12-10T19:42:04.742Z,13.75
2022-12-10T19:44:33.253Z,13.20
2022-12-10T19:47:01.111Z,10.73
2022-12-10T19:49:28.914Z,13.32
2022-12-10T19:51:56.579Z,10.73
2022-12-10T19:54:24.167Z,10.45
2022-12-10T19:56:51.812Z,9.13
2022-12-10T19:59:21.057Z,9.68
2022-12-10T20:01:49.494Z,9.65
2022-12-10T20:04:19.012Z,9.90
2022-12-10T20:06:50.029Z,9.48
2022-12-10T20:09:28.390Z,14.80
2022-12-10T20:11:56.787Z,9.48
2022-12-10T20:14:25.234Z,14.52
2022-12-10T20:16:53.553Z,10.93
2022-12-10T20:19:23.843Z,12.15
2022-12-10T20:21:52.982Z,12.73
2022-12-10T20:24:21.308Z,13.85
2022-12-10T20:26:50.724Z,13.57
2022-12-10T20:29:24.085Z,13.77
2022-12-10T20:31:53.848Z,11.63
2022-12-10T20:34:22.675Z,12.98
2022-12-10T20:36:50.971Z,13.30
2022-12-10T20:39:27.401Z,16.60
2022-12-10T20:41:56.083Z,16.30
2022-12-10T20:44:25.008Z,13.55
2022-12-10T20:46:54.234Z,13.57
2022-12-10T20:49:23.954Z,13.00
2022-12-10T20:51:52.325Z,13.35
2022-12-10T20:54:20.614Z,12.55
2022-12-10T20:56:48.333Z,15.27
2022-12-10T20:59:18.187Z,14.70
2022-12-10T21:01:45.976Z,17.33
2022-12-10T21:04:13.721Z,12.75
2022-12-10T21:06:44.381Z,17.92
2022-12-10T21:09:13.550Z,16.58
2022-12-10T21:11:41.275Z,14.32
2022-12-10T21:14:18.456Z,17.50
2022-12-10T21:16:56.679Z,14.02
2022-12-10T21:19:24.395Z,13.18
2022-12-10T21:21:52.259Z,14.27
2022-12-10T21:24:20.047Z,13.52
2022-12-10T21:26:47.735Z,10.20
2022-12-10T21:29:15.725Z,13.15
2022-12-10T21:31:43.557Z,10.98
2022-12-10T21:34:11.336Z,13.13
2022-12-10T21:36:39.546Z,12.45
2022-12-10T21:39:07.363Z,11.73
2022-12-10T21:41:53.686Z,14.23
2022-12-10T21:44:21.454Z,13.90
2022-12-10T21:46:49.264Z,13.50
2022-12-10T21:49:17.092Z,12.90
2022-12-10T21:51:44.772Z,15.57
2022-12-10T21:54:12.435Z,15.40
2022-12-10T21:56:41.278Z,13.73
2022-12-10T21:59:09.265Z,15.30
2022-12-10T22:01:37.448Z,10.07
2022-12-10T22:04:05.294Z,11.88
2022-12-10T22:06:33.035Z,15.10
2022-12-10T22:09:00.688Z,12.82
2022-12-10T22:11:28.524Z,12.57
2022-12-10T22:13:56.840Z,9.95
2022-12-10T22:16:25.062Z,11.93
2022-12-10T22:18:52.720Z,12.13
2022-12-10T22:21:24.431Z,11.40
2022-12-10T22:23:53.238Z,11.60
2022-12-10T22:26:22.055Z,15.63
2022-12-10T22:28:50.171Z,11.57
2022-12-10T22:31:18.407Z,14.95
2022-12-10T22:33:46.294Z,19.55
2022-12-10T22:36:14.737Z,15.93
2022-12-10T22:38:42.424Z,16.08
2022-12-10T22:41:10.579Z,17.70
2022-12-10T22:43:50.223Z,16.12
2022-12-10T22:46:18.765Z,16.40
2022-12-10T22:48:46.710Z,18.45
2022-12-10T22:51:14.410Z,13.43
2022-12-10T22:53:42.125Z,16.75
2022-12-10T22:56:12.479Z,25.65
2022-12-10T22:58:40.377Z,15.20
2022-12-10T23:01:08.364Z,13.35
2022-12-10T23:03:36.020Z,15.57
2022-12-10T23:06:03.786Z,20.20
2022-12-10T23:08:32.351Z,16.62
2022-12-10T23:11:00.120Z,18.90
2022-12-10T23:13:31.095Z,20.95
2022-12-10T23:16:01.273Z,14.63
2022-12-10T23:18:28.993Z,16.27
2022-12-10T23:20:56.748Z,15.32
2022-12-10T23:23:24.370Z,15.85
2022-12-10T23:25:52.584Z,15.98
2022-12-10T23:28:20.885Z,21.65
2022-12-10T23:30:57.148Z,18.35
2022-12-10T23:33:25.033Z,27.62
2022-12-10T23:35:52.622Z,26.98
2022-12-10T23:38:20.340Z,16.17
2022-12-10T23:40:47.987Z,24.65
2022-12-10T23:43:15.661Z,23.15
2022-12-10T23:45:44.905Z,25.60
2022-12-10T23:48:12.789Z,23.73
2022-12-10T23:50:40.507Z,18.00
2022-12-10T23:53:08.561Z,23.77
2022-12-10T23:55:36.231Z,21.42
2022-12-10T23:58:04.065Z,16.52
